< < Back
Terminal Aerodrome Forecast


Current Version              Previous Versions:   1  2  3  4  5  6  7  8  9  

Terminal Aerodrome Forecast

452
FTUS42 KFFC 230339 AAB
TAFCSG
TAF AMD
KCSG 230339Z 2304/2324 10008KT 3SM BR OVC003
     FM230700 11006KT 1SM -DZ BR OVC003
     FM231500 14007KT 2SM -SHRA BR OVC008
     FM231800 15008KT 5SM -SHRA BR OVC012 PROB30 2320/2324 3SM TSRA
      BR OVC010CB=



Latest METAR

784
SAUS70 KWBC 230500
MTRCSG
METAR KCSG 230451Z AUTO 11006KT 2 1/2SM BR OVC003 09/09 A2990 RMK AO2
SLP122 T00890089 401000083


USA.gov is the U.S. government's official web portal to all federal, state and local government web resources and services.